createdAt,value
2023-03-28T00:00:49.373Z,1.42
2023-03-28T00:03:22.731Z,1.48
2023-03-28T00:06:02.349Z,1.30
2023-03-28T00:08:37.004Z,1.08
2023-03-28T00:11:11.469Z,1.20
2023-03-28T00:13:43.887Z,1.20
2023-03-28T00:16:16.715Z,1.40
2023-03-28T00:24:02.652Z,1.30
2023-03-28T00:26:35.891Z,1.17
2023-03-28T00:29:15.822Z,1.50
2023-03-28T00:31:53.161Z,1.40
2023-03-28T00:34:25.793Z,1.13
2023-03-28T00:36:58.630Z,1.27
2023-03-28T00:39:31.601Z,1.27
2023-03-28T00:42:04.211Z,1.17
2023-03-28T00:44:45.680Z,1.10
2023-03-28T00:47:40.888Z,1.00
2023-03-28T00:50:20.560Z,1.30
2023-03-28T00:53:07.268Z,1.00
2023-03-28T00:55:42.577Z,1.00
2023-03-28T00:58:23.305Z,1.15
2023-03-28T01:01:00.223Z,1.10
2023-03-28T01:06:13.873Z,1.00
2023-03-28T01:08:49.235Z,1.00
2023-03-28T01:11:23.631Z,1.02
2023-03-28T01:14:00.687Z,0.80
2023-03-28T01:16:42.550Z,1.17
2023-03-28T01:19:59.214Z,1.17
2023-03-28T01:22:43.978Z,1.10
2023-03-28T01:25:43.799Z,0.98
2023-03-28T01:28:47.264Z,0.88
2023-03-28T01:31:28.889Z,1.08
2023-03-28T01:34:35.073Z,1.10
2023-03-28T01:37:34.460Z,0.90
2023-03-28T01:40:37.103Z,1.00
2023-03-28T01:43:40.557Z,1.00
2023-03-28T01:46:18.927Z,1.10
2023-03-28T01:49:21.368Z,0.95
2023-03-28T01:51:56.636Z,1.13
2023-03-28T01:54:45.025Z,1.15
2023-03-28T01:57:26.776Z,1.10
2023-03-28T02:00:43.447Z,0.80
2023-03-28T02:03:21.200Z,1.00
2023-03-28T02:06:21.298Z,1.10
2023-03-28T02:08:57.049Z,0.90
2023-03-28T02:11:59.213Z,0.90
2023-03-28T02:15:08.657Z,0.85
2023-03-28T02:18:07.048Z,1.08
2023-03-28T02:21:18.871Z,0.90
2023-03-28T02:24:17.577Z,0.80
2023-03-28T02:27:24.274Z,1.10
2023-03-28T02:30:17.605Z,0.80
2023-03-28T02:32:59.576Z,1.00
2023-03-28T02:35:45.087Z,1.00
2023-03-28T02:38:24.227Z,0.90
2023-03-28T02:41:27.944Z,0.85
2023-03-28T02:44:24.165Z,1.00
2023-03-28T02:47:16.915Z,0.80
2023-03-28T02:49:59.561Z,0.70
2023-03-28T02:52:41.891Z,0.85
2023-03-28T02:55:33.244Z,0.90
2023-03-28T02:59:02.105Z,0.88
2023-03-28T03:01:36.869Z,0.75
2023-03-28T03:04:09.554Z,1.00
2023-03-28T03:06:46.600Z,0.82
2023-03-28T03:09:19.014Z,0.82
2023-03-28T03:11:51.527Z,0.88
2023-03-28T03:14:24.126Z,0.97
2023-03-28T03:16:59.144Z,0.90
2023-03-28T03:19:32.570Z,0.70
2023-03-28T03:22:04.914Z,0.88
2023-03-28T03:24:40.721Z,0.90
2023-03-28T03:27:14.302Z,0.90
2023-03-28T03:29:48.582Z,0.90
2023-03-28T03:32:24.645Z,1.00
2023-03-28T03:35:07.538Z,0.80
2023-03-28T03:37:40.060Z,0.80
2023-03-28T03:40:12.999Z,0.98
2023-03-28T03:42:48.242Z,0.80
2023-03-28T03:45:20.653Z,0.98
2023-03-28T03:47:53.391Z,0.93
2023-03-28T03:50:25.960Z,1.00
2023-03-28T03:52:58.640Z,0.80
2023-03-28T03:55:40.425Z,0.90
2023-03-28T03:58:13.061Z,0.70
2023-03-28T04:00:46.800Z,0.80
2023-03-28T04:03:34.704Z,1.20
2023-03-28T04:06:10.763Z,0.80
2023-03-28T04:08:43.403Z,1.00
2023-03-28T04:11:16.019Z,1.00
2023-03-28T04:13:49.327Z,0.70
2023-03-28T04:16:21.787Z,0.70
2023-03-28T04:19:02.830Z,0.90
2023-03-28T04:21:35.512Z,0.93
2023-03-28T04:24:09.790Z,1.00
2023-03-28T04:26:50.288Z,1.02
2023-03-28T04:29:30.788Z,1.05
2023-03-28T04:32:22.072Z,0.70
2023-03-28T04:35:12.429Z,0.93
2023-03-28T04:37:45.154Z,0.82
2023-03-28T04:40:18.567Z,0.70
2023-03-28T04:42:58.165Z,0.90
2023-03-28T04:45:37.955Z,0.90
2023-03-28T04:48:24.102Z,0.82
2023-03-28T04:50:57.495Z,0.85
2023-03-28T04:53:30.844Z,0.70
2023-03-28T04:56:22.275Z,1.00
2023-03-28T04:58:55.947Z,0.90
2023-03-28T05:01:33.155Z,0.90
2023-03-28T05:04:26.713Z,0.90
2023-03-28T05:07:00.372Z,0.90
2023-03-28T05:09:33.717Z,0.80
2023-03-28T05:12:07.559Z,0.70
2023-03-28T05:14:56.169Z,1.00
2023-03-28T05:17:28.578Z,0.90
2023-03-28T05:20:09.469Z,0.90
2023-03-28T05:22:55.586Z,0.80
2023-03-28T05:25:29.385Z,0.68
2023-03-28T05:28:02.007Z,0.93
2023-03-28T05:30:35.477Z,0.98
2023-03-28T05:33:08.023Z,0.90
2023-03-28T05:35:40.792Z,0.98
2023-03-28T05:38:14.458Z,1.00
2023-03-28T05:40:48.496Z,0.93
2023-03-28T05:43:21.843Z,0.82
2023-03-28T05:45:54.738Z,1.05
2023-03-28T05:48:32.820Z,0.90
2023-03-28T05:51:05.640Z,0.90
2023-03-28T05:53:40.208Z,0.90
2023-03-28T05:56:16.084Z,0.82
2023-03-28T05:58:49.758Z,0.82
2023-03-28T06:01:23.515Z,1.17
2023-03-28T06:04:00.849Z,0.70
2023-03-28T06:06:34.614Z,0.98
2023-03-28T06:09:08.749Z,1.10
2023-03-28T06:11:53.723Z,1.02
2023-03-28T06:14:26.213Z,1.10
2023-03-28T06:17:02.402Z,0.93
2023-03-28T06:19:42.759Z,0.93
2023-03-28T06:22:15.537Z,1.10
2023-03-28T06:24:51.627Z,1.00
2023-03-28T06:27:30.944Z,0.95
2023-03-28T06:30:05.426Z,1.08
2023-03-28T06:32:45.791Z,1.20
2023-03-28T06:35:20.531Z,1.20
2023-03-28T06:40:34.602Z,0.82
2023-03-28T06:43:11.662Z,0.93
2023-03-28T06:45:57.985Z,1.30
2023-03-28T06:48:35.763Z,0.90
2023-03-28T06:51:44.391Z,1.10
2023-03-28T06:54:17.570Z,1.13
2023-03-28T06:56:50.550Z,1.02
2023-03-28T07:02:12.870Z,1.00
2023-03-28T07:04:46.588Z,1.05
2023-03-28T07:07:25.490Z,1.20
2023-03-28T07:09:59.385Z,1.10
2023-03-28T07:12:39.271Z,0.93
2023-03-28T07:15:15.738Z,0.95
2023-03-28T07:17:50.091Z,1.25
2023-03-28T07:20:23.957Z,1.10
2023-03-28T07:22:56.802Z,0.95
2023-03-28T07:25:29.214Z,1.17
2023-03-28T07:28:01.665Z,1.20
2023-03-28T07:30:34.116Z,1.17
2023-03-28T07:33:16.650Z,1.97
2023-03-28T07:35:52.810Z,1.10
2023-03-28T07:38:26.945Z,1.10
2023-03-28T07:41:01.747Z,1.08
2023-03-28T07:43:35.027Z,1.35
2023-03-28T07:46:09.997Z,1.40
2023-03-28T07:48:43.608Z,1.27
2023-03-28T07:51:18.922Z,1.20
2023-03-28T07:53:51.955Z,1.50
2023-03-28T07:56:25.924Z,1.40
2023-03-28T07:59:30.510Z,1.00
2023-03-28T08:02:03.615Z,1.30
2023-03-28T08:04:36.128Z,1.60
2023-03-28T08:07:15.693Z,1.10
2023-03-28T08:09:51.107Z,1.20
2023-03-28T08:12:30.301Z,1.30
2023-03-28T08:15:03.261Z,1.25
2023-03-28T08:17:36.738Z,1.13
2023-03-28T08:20:11.371Z,1.50
2023-03-28T08:23:03.139Z,1.40
2023-03-28T08:25:41.570Z,1.20
2023-03-28T08:28:14.033Z,1.13
2023-03-28T08:30:46.479Z,1.30
2023-03-28T08:33:19.659Z,1.55
2023-03-28T08:35:53.484Z,1.40
2023-03-28T08:38:27.230Z,1.30
2023-03-28T08:41:15.367Z,1.25
2023-03-28T08:44:01.128Z,1.33
2023-03-28T08:46:36.210Z,1.60
2023-03-28T08:49:16.796Z,1.52
2023-03-28T08:52:26.426Z,1.48
2023-03-28T08:55:02.580Z,1.77
2023-03-28T08:57:36.353Z,1.60
2023-03-28T09:00:23.124Z,1.50
2023-03-28T09:02:56.212Z,1.70
2023-03-28T09:05:52.186Z,1.65
2023-03-28T09:08:27.917Z,1.70
2023-03-28T09:11:26.455Z,1.55
2023-03-28T09:13:58.982Z,1.55
2023-03-28T09:16:53.518Z,1.75
2023-03-28T09:19:56.166Z,1.33
2023-03-28T09:23:19.140Z,1.60
2023-03-28T09:26:24.507Z,1.80
2023-03-28T09:29:16.443Z,1.65
2023-03-28T09:31:51.454Z,1.90
2023-03-28T09:34:39.666Z,1.77
2023-03-28T09:37:41.409Z,1.45
2023-03-28T09:40:25.072Z,1.45
2023-03-28T09:43:34.315Z,1.75
2023-03-28T09:46:34.822Z,1.70
2023-03-28T09:49:31.496Z,1.60
2023-03-28T09:52:22.370Z,1.80
2023-03-28T09:54:54.838Z,1.55
2023-03-28T09:57:27.589Z,1.60
2023-03-28T10:00:22.741Z,1.50
2023-03-28T10:03:32.897Z,1.70
2023-03-28T10:06:30.696Z,1.70
2023-03-28T10:09:20.574Z,1.58
2023-03-28T10:12:22.460Z,1.52
2023-03-28T10:14:54.857Z,1.50
2023-03-28T10:17:50.205Z,1.55
2023-03-28T10:20:28.202Z,1.75
2023-03-28T10:23:05.825Z,1.42
2023-03-28T10:25:43.085Z,1.65
2023-03-28T10:28:38.451Z,1.48
2023-03-28T10:31:23.606Z,1.35
2023-03-28T10:33:59.839Z,1.58
2023-03-28T10:36:52.465Z,1.60
2023-03-28T10:39:35.593Z,1.25
2023-03-28T10:42:07.953Z,1.20
2023-03-28T10:45:04.288Z,1.55
2023-03-28T10:47:41.861Z,1.50
2023-03-28T10:50:27.584Z,1.50
2023-03-28T10:53:22.106Z,1.73
2023-03-28T10:56:14.339Z,1.50
2023-03-28T10:59:01.761Z,1.50
2023-03-28T11:01:53.744Z,1.17
2023-03-28T11:04:51.442Z,1.65
2023-03-28T11:07:55.120Z,1.98
2023-03-28T11:11:12.915Z,1.48
2023-03-28T11:14:02.531Z,1.65
2023-03-28T11:17:08.449Z,1.40
2023-03-28T11:20:22.132Z,1.30
2023-03-28T11:23:36.115Z,1.52
2023-03-28T11:26:47.203Z,1.42
2023-03-28T11:29:53.720Z,1.30
2023-03-28T11:32:40.779Z,1.25
2023-03-28T11:35:38.485Z,1.45
2023-03-28T11:38:22.430Z,1.40
2023-03-28T11:41:04.328Z,1.23
2023-03-28T11:44:22.586Z,1.48
2023-03-28T11:47:08.607Z,1.50
2023-03-28T11:49:56.909Z,1.25
2023-03-28T11:53:02.003Z,1.10
2023-03-28T11:55:49.249Z,1.17
2023-03-28T11:58:43.643Z,1.15
2023-03-28T12:01:21.517Z,1.33
2023-03-28T12:04:02.701Z,1.08
2023-03-28T12:07:06.906Z,1.40
2023-03-28T12:09:53.343Z,1.27
2023-03-28T12:13:05.527Z,1.02
2023-03-28T12:15:52.791Z,1.13
2023-03-28T12:18:41.468Z,1.20
2023-03-28T12:21:42.601Z,1.10
2023-03-28T12:24:25.876Z,0.90
2023-03-28T12:27:19.437Z,0.90
2023-03-28T12:29:59.324Z,1.10
2023-03-28T12:32:48.903Z,1.08
2023-03-28T12:35:52.643Z,0.80
2023-03-28T12:38:35.849Z,1.30
2023-03-28T12:41:31.326Z,1.10
2023-03-28T12:44:12.132Z,0.85
2023-03-28T12:46:57.172Z,1.27
2023-03-28T12:49:53.043Z,1.10
2023-03-28T12:52:32.027Z,1.00
2023-03-28T12:55:08.698Z,0.88
2023-03-28T12:57:49.588Z,0.90
2023-03-28T13:01:04.857Z,0.90
2023-03-28T13:03:52.598Z,1.00
2023-03-28T13:07:01.211Z,1.00
2023-03-28T13:10:00.650Z,1.35
2023-03-28T13:12:56.205Z,1.10
2023-03-28T13:15:31.637Z,1.10
2023-03-28T13:18:20.250Z,1.00
2023-03-28T13:20:54.364Z,0.88
2023-03-28T13:23:55.983Z,1.00
2023-03-28T13:26:53.861Z,0.90
2023-03-28T13:29:48.470Z,1.15
2023-03-28T13:32:25.679Z,1.10
2023-03-28T13:35:03.615Z,1.20
2023-03-28T13:37:42.046Z,1.20
2023-03-28T13:40:56.221Z,0.98
2023-03-28T13:43:48.497Z,1.05
2023-03-28T13:46:27.148Z,0.90
2023-03-28T13:49:07.955Z,1.13
2023-03-28T13:51:55.983Z,0.88
2023-03-28T13:54:29.170Z,1.23
2023-03-28T13:57:08.546Z,0.85
2023-03-28T14:00:06.060Z,1.00
2023-03-28T14:02:50.865Z,1.10
2023-03-28T14:05:27.192Z,1.00
2023-03-28T14:08:21.569Z,1.00
2023-03-28T14:10:56.927Z,1.08
2023-03-28T14:13:33.434Z,1.10
2023-03-28T14:16:07.672Z,0.90
2023-03-28T14:18:50.188Z,1.08
2023-03-28T14:21:26.069Z,0.98
2023-03-28T14:24:01.743Z,0.98
2023-03-28T14:26:37.915Z,0.93
2023-03-28T14:29:18.216Z,0.85
2023-03-28T14:31:50.622Z,1.00
2023-03-28T14:34:26.132Z,1.00
2023-03-28T14:37:01.713Z,1.20
2023-03-28T14:39:37.246Z,1.20
2023-03-28T14:42:17.646Z,1.00
2023-03-28T14:44:53.859Z,1.00
2023-03-28T14:47:35.303Z,1.00
2023-03-28T14:50:14.107Z,1.00
2023-03-28T14:52:47.036Z,1.45
2023-03-28T14:55:24.084Z,1.02
2023-03-28T14:57:58.354Z,1.00
2023-03-28T15:00:38.386Z,1.00
2023-03-28T15:03:24.043Z,1.17
2023-03-28T15:05:57.494Z,1.20
2023-03-28T15:08:38.620Z,1.42
2023-03-28T15:11:11.037Z,1.33
2023-03-28T15:13:47.793Z,1.20
2023-03-28T15:16:24.154Z,1.20
2023-03-28T15:18:56.974Z,0.93
2023-03-28T15:21:29.372Z,1.10
2023-03-28T15:24:04.345Z,1.20
2023-03-28T15:26:42.120Z,1.00
2023-03-28T15:29:18.847Z,1.17
2023-03-28T15:31:56.440Z,1.00
2023-03-28T15:34:29.019Z,1.00
2023-03-28T15:37:06.538Z,0.90
2023-03-28T15:39:38.950Z,1.25
2023-03-28T15:42:20.950Z,1.27
2023-03-28T15:44:59.319Z,1.33
2023-03-28T15:47:35.675Z,1.10
2023-03-28T15:50:16.178Z,1.30
2023-03-28T15:52:48.524Z,1.50
2023-03-28T15:55:24.538Z,1.67
2023-03-28T15:58:00.099Z,1.30
2023-03-28T16:00:35.724Z,1.35
2023-03-28T16:03:20.772Z,1.38
2023-03-28T16:06:01.793Z,1.38
2023-03-28T16:08:48.218Z,1.45
2023-03-28T16:11:23.680Z,1.35
2023-03-28T16:14:20.784Z,1.60
2023-03-28T16:17:29.009Z,1.52
2023-03-28T16:20:23.299Z,1.35
2023-03-28T16:22:56.272Z,1.40
2023-03-28T16:25:29.338Z,1.70
2023-03-28T16:28:02.008Z,1.60
2023-03-28T16:30:38.178Z,1.60
2023-03-28T16:33:10.856Z,1.50
2023-03-28T16:35:43.606Z,1.30
2023-03-28T16:38:16.201Z,1.52
2023-03-28T16:40:48.872Z,1.88
2023-03-28T16:43:21.561Z,1.40
2023-03-28T16:45:54.014Z,1.83
2023-03-28T16:48:27.274Z,1.58
2023-03-28T16:51:05.122Z,1.50
2023-03-28T16:53:39.601Z,1.65
2023-03-28T16:56:12.375Z,1.35
2023-03-28T16:58:45.100Z,1.52
2023-03-28T17:01:19.473Z,1.17
2023-03-28T17:03:53.682Z,1.48
2023-03-28T17:06:29.565Z,2.45
2023-03-28T17:09:04.676Z,1.65
2023-03-28T17:11:38.976Z,1.33
2023-03-28T17:14:11.739Z,1.48
2023-03-28T17:16:45.736Z,1.38
2023-03-28T17:22:23.541Z,1.17
2023-03-28T17:25:02.162Z,1.45
2023-03-28T17:27:34.762Z,1.65
2023-03-28T17:30:08.317Z,1.60
2023-03-28T17:32:41.416Z,1.20
2023-03-28T17:35:17.359Z,1.20
2023-03-28T17:37:52.900Z,1.13
2023-03-28T17:40:25.711Z,1.35
2023-03-28T17:42:59.896Z,1.52
2023-03-28T17:45:32.840Z,1.10
2023-03-28T17:48:05.479Z,1.55
2023-03-28T17:50:38.784Z,1.27
2023-03-28T17:55:43.743Z,1.30
2023-03-28T17:58:16.319Z,1.10
2023-03-28T18:00:49.086Z,1.45
2023-03-28T18:03:23.202Z,1.42
2023-03-28T18:06:21.452Z,1.08
2023-03-28T18:08:53.884Z,1.30
2023-03-28T18:11:27.163Z,1.50
2023-03-28T18:14:01.143Z,1.42
2023-03-28T18:16:33.838Z,1.40
2023-03-28T18:19:06.945Z,1.33
2023-03-28T18:21:39.542Z,1.13
2023-03-28T18:24:14.312Z,1.20
2023-03-28T18:26:46.726Z,1.50
2023-03-28T18:29:19.352Z,1.23
2023-03-28T18:31:51.795Z,1.40
2023-03-28T18:34:24.664Z,1.23
2023-03-28T18:37:00.235Z,1.00
2023-03-28T18:39:35.912Z,1.20
2023-03-28T18:42:09.067Z,1.25
2023-03-28T18:44:46.681Z,1.20
2023-03-28T18:47:19.084Z,1.00
2023-03-28T18:49:51.683Z,1.17
2023-03-28T18:52:28.311Z,1.45
2023-03-28T18:55:01.969Z,1.10
2023-03-28T18:57:35.124Z,1.20
2023-03-28T19:00:17.616Z,1.20
2023-03-28T19:02:51.042Z,1.35
2023-03-28T19:05:24.652Z,1.20
2023-03-28T19:07:58.428Z,1.25
2023-03-28T19:10:30.954Z,1.17
2023-03-28T19:13:03.336Z,1.50
2023-03-28T19:15:37.035Z,1.30
2023-03-28T19:18:09.533Z,1.30
2023-03-28T19:20:42.243Z,1.20
2023-03-28T19:23:16.572Z,1.13
2023-03-28T19:25:50.125Z,1.20
2023-03-28T19:28:23.616Z,1.23
2023-03-28T19:31:01.835Z,1.50
2023-03-28T19:33:36.413Z,1.23
2023-03-28T19:36:10.278Z,1.50
2023-03-28T19:38:42.757Z,1.33
2023-03-28T19:41:19.342Z,1.08
2023-03-28T19:43:53.268Z,1.30
2023-03-28T19:46:37.149Z,1.40
2023-03-28T19:49:11.808Z,1.42
2023-03-28T19:51:44.139Z,1.45
2023-03-28T19:54:18.215Z,1.38
2023-03-28T19:56:51.251Z,1.30
2023-03-28T19:59:23.591Z,1.25
2023-03-28T20:01:59.175Z,1.27
2023-03-28T20:04:31.735Z,1.10
2023-03-28T20:07:04.314Z,1.25
2023-03-28T20:09:36.709Z,1.40
2023-03-28T20:12:09.099Z,1.40
2023-03-28T20:14:42.763Z,1.23
2023-03-28T20:17:15.239Z,1.40
2023-03-28T20:19:51.483Z,1.90
2023-03-28T20:22:25.700Z,1.42
2023-03-28T20:25:00.804Z,1.42
2023-03-28T20:27:35.775Z,1.70
2023-03-28T20:30:09.548Z,1.40
2023-03-28T20:32:42.069Z,1.50
2023-03-28T20:35:14.460Z,1.80
2023-03-28T20:37:48.832Z,1.60
2023-03-28T20:40:23.126Z,1.60
2023-03-28T20:42:57.049Z,1.80
2023-03-28T20:45:29.565Z,1.55
2023-03-28T20:48:07.528Z,1.67
2023-03-28T20:50:41.412Z,1.50
2023-03-28T20:53:13.963Z,1.83
2023-03-28T20:55:46.389Z,1.65
2023-03-28T20:58:19.231Z,1.40
2023-03-28T21:03:48.369Z,1.35
2023-03-28T21:06:37.972Z,1.48
2023-03-28T21:09:15.758Z,1.70
2023-03-28T21:11:49.778Z,1.40
2023-03-28T21:14:22.780Z,1.63
2023-03-28T21:16:58.024Z,1.90
2023-03-28T21:19:30.502Z,1.60
2023-03-28T21:22:02.841Z,1.70
2023-03-28T21:24:35.190Z,1.53
2023-03-28T21:27:07.554Z,1.30
2023-03-28T21:29:39.920Z,2.00
2023-03-28T21:32:13.607Z,1.27
2023-03-28T21:34:46.473Z,1.52
2023-03-28T21:37:18.916Z,1.63
2023-03-28T21:39:51.524Z,1.60
2023-03-28T21:42:27.986Z,2.38
2023-03-28T21:45:00.992Z,2.15
2023-03-28T21:47:33.368Z,1.73
2023-03-28T21:50:07.455Z,1.60
2023-03-28T21:52:40.367Z,1.55
2023-03-28T21:55:13.007Z,1.50
2023-03-28T21:57:45.567Z,1.23
2023-03-28T22:00:18.161Z,1.30
2023-03-28T22:02:50.663Z,1.55
2023-03-28T22:05:29.577Z,1.75
2023-03-28T22:08:02.634Z,1.50
2023-03-28T22:10:38.102Z,1.75
2023-03-28T22:13:11.076Z,1.50
2023-03-28T22:15:43.508Z,1.58
2023-03-28T22:18:15.971Z,1.80
2023-03-28T22:20:53.376Z,1.58
2023-03-28T22:23:27.879Z,1.42
2023-03-28T22:26:00.229Z,1.83
2023-03-28T22:28:32.701Z,1.53
2023-03-28T22:31:05.319Z,2.00
2023-03-28T22:33:38.271Z,1.75
2023-03-28T22:36:11.842Z,1.80
2023-03-28T22:38:44.827Z,1.73
2023-03-28T22:41:18.289Z,1.77
2023-03-28T22:43:50.623Z,1.70
2023-03-28T22:46:23.139Z,1.93
2023-03-28T22:48:58.030Z,1.70
2023-03-28T22:51:30.399Z,1.70
2023-03-28T22:54:04.107Z,1.70
2023-03-28T22:56:36.853Z,1.50
2023-03-28T22:59:09.545Z,1.40
2023-03-28T23:01:45.573Z,1.75
2023-03-28T23:04:18.505Z,1.65
2023-03-28T23:06:52.882Z,1.70
2023-03-28T23:09:27.748Z,1.63
2023-03-28T23:12:00.544Z,1.90
2023-03-28T23:14:33.298Z,1.70
2023-03-28T23:17:05.834Z,1.40
2023-03-28T23:19:38.236Z,1.92
2023-03-28T23:22:10.640Z,1.70
2023-03-28T23:24:43.037Z,1.77
2023-03-28T23:27:15.413Z,1.60
2023-03-28T23:29:47.804Z,2.00
2023-03-28T23:32:20.282Z,1.77
2023-03-28T23:34:53.743Z,2.03
2023-03-28T23:37:27.463Z,1.90
2023-03-28T23:40:00.118Z,1.73
2023-03-28T23:42:38.982Z,1.70
2023-03-28T23:45:14.001Z,2.05
2023-03-28T23:47:46.642Z,1.67
2023-03-28T23:50:19.200Z,1.75
2023-03-28T23:52:51.730Z,1.90
2023-03-28T23:55:26.681Z,1.92
2023-03-28T23:58:01.490Z,1.60
